createdAt,value
2022-08-26T00:02:15.832Z,8.93
2022-08-26T00:06:20.894Z,9.10
2022-08-26T00:10:22.581Z,9.33
2022-08-26T00:14:30.991Z,8.63
2022-08-26T00:18:29.659Z,8.80
2022-08-26T00:22:33.105Z,9.33
2022-08-26T00:26:34.330Z,8.90
2022-08-26T00:30:36.196Z,9.27
2022-08-26T00:34:37.614Z,9.37
2022-08-26T00:38:38.863Z,8.23
2022-08-26T00:42:40.448Z,9.60
2022-08-26T00:46:47.284Z,8.87
2022-08-26T00:50:52.280Z,9.80
2022-08-26T00:55:09.689Z,9.90
2022-08-26T00:59:13.129Z,9.10
2022-08-26T01:03:18.134Z,9.77
2022-08-26T01:07:20.708Z,9.80
2022-08-26T01:11:24.608Z,9.17
2022-08-26T01:15:30.347Z,9.70
2022-08-26T01:19:40.187Z,9.50
2022-08-26T01:23:45.278Z,9.70
2022-08-26T01:27:46.446Z,9.47
2022-08-26T01:31:54.966Z,10.30
2022-08-26T01:35:56.427Z,10.33
2022-08-26T01:39:58.195Z,9.77
2022-08-26T01:44:01.291Z,8.90
2022-08-26T01:48:06.311Z,9.53
2022-08-26T01:52:09.537Z,9.53
2022-08-26T01:56:14.885Z,9.53
2022-08-26T02:00:16.402Z,9.43
2022-08-26T02:04:27.953Z,11.00
2022-08-26T02:08:42.374Z,10.00
2022-08-26T02:12:43.509Z,10.20
2022-08-26T02:16:48.026Z,9.60
2022-08-26T02:20:51.696Z,9.83
2022-08-26T02:24:59.918Z,9.83
2022-08-26T02:29:11.078Z,8.77
2022-08-26T02:33:13.219Z,10.57
2022-08-26T02:37:14.756Z,9.97
2022-08-26T02:41:17.761Z,9.80
2022-08-26T02:45:23.262Z,9.30
2022-08-26T02:49:24.162Z,9.13
2022-08-26T02:53:25.698Z,10.47
2022-08-26T02:57:27.118Z,10.07
2022-08-26T03:01:31.723Z,10.33
2022-08-26T03:05:34.408Z,10.67
2022-08-26T03:09:35.631Z,9.90
2022-08-26T03:13:37.657Z,10.40
2022-08-26T03:17:38.989Z,10.40
2022-08-26T03:21:40.817Z,9.70
2022-08-26T03:25:42.366Z,9.80
2022-08-26T03:30:02.539Z,9.53
2022-08-26T03:34:04.082Z,9.83
2022-08-26T03:38:07.489Z,9.00
2022-08-26T03:42:08.846Z,8.57
2022-08-26T03:46:12.110Z,10.07
2022-08-26T03:50:16.024Z,8.90
2022-08-26T03:54:17.263Z,8.60
2022-08-26T03:58:19.871Z,9.90
2022-08-26T04:02:21.101Z,9.57
2022-08-26T04:06:23.328Z,9.57
2022-08-26T04:10:28.620Z,8.30
2022-08-26T04:14:30.571Z,9.10
2022-08-26T04:18:37.081Z,9.70
2022-08-26T04:22:38.950Z,9.50
2022-08-26T04:26:43.874Z,9.40
2022-08-26T04:30:45.918Z,9.63
2022-08-26T04:34:47.211Z,9.23
2022-08-26T04:38:50.180Z,9.30
2022-08-26T04:42:53.471Z,8.93
2022-08-26T04:46:55.511Z,8.57
2022-08-26T04:50:59.199Z,9.23
2022-08-26T04:55:00.451Z,9.10
2022-08-26T04:59:03.686Z,10.30
2022-08-26T05:03:07.044Z,9.73
2022-08-26T05:07:10.165Z,9.80
2022-08-26T05:11:11.651Z,9.73
2022-08-26T05:15:12.946Z,10.30
2022-08-26T05:19:15.977Z,11.30
2022-08-26T05:23:22.112Z,10.10
2022-08-26T05:27:23.420Z,10.87
2022-08-26T05:31:28.687Z,9.17
2022-08-26T05:35:31.500Z,9.47
2022-08-26T05:39:33.069Z,10.13
2022-08-26T05:43:34.621Z,9.67
2022-08-26T05:47:36.704Z,10.30
2022-08-26T05:51:37.955Z,9.70
2022-08-26T05:55:45.046Z,11.13
2022-08-26T05:59:46.656Z,8.83
2022-08-26T06:03:51.212Z,9.40
2022-08-26T06:08:10.631Z,8.37
2022-08-26T06:12:12.385Z,10.73
2022-08-26T06:16:17.472Z,10.57
2022-08-26T06:20:18.652Z,9.67
2022-08-26T06:24:38.347Z,9.60
2022-08-26T06:28:39.755Z,9.57
2022-08-26T06:32:42.765Z,9.90
2022-08-26T06:36:44.387Z,9.90
2022-08-26T06:40:51.790Z,9.60
2022-08-26T06:44:53.143Z,10.30
2022-08-26T06:48:57.467Z,9.20
2022-08-26T06:52:58.751Z,9.83
2022-08-26T06:57:00.423Z,9.23
2022-08-26T07:01:09.059Z,9.37
2022-08-26T07:05:05.819Z,8.57
2022-08-26T07:09:10.155Z,9.60
2022-08-26T07:13:11.735Z,9.73
2022-08-26T07:17:14.045Z,9.30
2022-08-26T07:21:16.564Z,8.63
2022-08-26T07:25:19.623Z,10.77
2022-08-26T07:29:21.430Z,9.20
2022-08-26T07:33:24.458Z,10.77
2022-08-26T07:37:25.678Z,10.60
2022-08-26T07:41:26.877Z,10.10
2022-08-26T07:45:28.816Z,11.00
2022-08-26T07:49:30.497Z,11.10
2022-08-26T07:53:33.373Z,10.73
2022-08-26T07:57:35.201Z,9.07
2022-08-26T08:01:37.085Z,10.93
2022-08-26T08:05:41.440Z,9.97
2022-08-26T08:09:42.688Z,12.20
2022-08-26T08:13:43.952Z,10.60
2022-08-26T08:17:45.188Z,11.20
2022-08-26T08:21:46.482Z,11.40
2022-08-26T08:25:48.542Z,9.80
2022-08-26T08:29:50.259Z,10.53
2022-08-26T08:33:52.165Z,11.10
2022-08-26T08:37:54.889Z,10.23
2022-08-26T08:42:06.058Z,12.30
2022-08-26T08:46:13.370Z,10.50
2022-08-26T08:50:34.492Z,10.40
2022-08-26T08:54:35.910Z,11.13
2022-08-26T08:58:47.679Z,10.83
2022-08-26T09:02:58.462Z,10.53
2022-08-26T09:07:03.792Z,10.20
2022-08-26T09:11:05.396Z,10.40
2022-08-26T09:15:17.879Z,10.50
2022-08-26T09:19:28.818Z,11.13
2022-08-26T09:23:33.459Z,10.40
2022-08-26T09:27:50.424Z,8.90
2022-08-26T09:31:54.863Z,9.53
2022-08-26T09:36:18.127Z,10.60
2022-08-26T09:40:27.043Z,9.47
2022-08-26T09:44:28.682Z,10.10
2022-08-26T09:48:35.542Z,9.57
2022-08-26T09:52:37.710Z,10.20
2022-08-26T09:56:41.123Z,9.60
2022-08-26T10:00:57.092Z,10.00
2022-08-26T10:05:09.329Z,9.90
2022-08-26T10:09:09.797Z,10.00
2022-08-26T10:13:13.926Z,8.83
2022-08-26T10:17:31.580Z,10.97
2022-08-26T10:21:39.516Z,11.00
2022-08-26T10:25:57.974Z,10.10
2022-08-26T10:30:06.940Z,10.63
2022-08-26T10:34:10.166Z,10.50
2022-08-26T10:38:16.835Z,10.83
2022-08-26T10:42:31.663Z,11.20
2022-08-26T10:46:46.027Z,10.10
2022-08-26T10:50:48.040Z,10.93
2022-08-26T10:55:11.339Z,9.77
2022-08-26T10:59:35.501Z,10.63
2022-08-26T11:03:44.434Z,9.73
2022-08-26T11:07:49.728Z,9.67
2022-08-26T11:11:51.333Z,9.83
2022-08-26T11:15:57.944Z,9.87
2022-08-26T11:20:08.946Z,10.90
2022-08-26T11:24:05.688Z,10.30
2022-08-26T11:28:07.086Z,9.53
2022-08-26T11:32:24.376Z,10.10
2022-08-26T11:36:49.277Z,9.67
2022-08-26T11:41:06.868Z,9.80
2022-08-26T11:45:24.400Z,10.80
2022-08-26T11:49:28.339Z,8.73
2022-08-26T11:53:33.320Z,10.30
2022-08-26T11:57:47.650Z,10.67
2022-08-26T12:01:51.664Z,9.60
2022-08-26T12:05:53.838Z,10.20
2022-08-26T12:09:58.243Z,9.80
2022-08-26T12:14:04.569Z,10.73
2022-08-26T12:18:20.685Z,9.67
2022-08-26T12:22:35.282Z,11.17
2022-08-26T12:26:36.693Z,11.13
2022-08-26T12:30:37.988Z,10.57
2022-08-26T12:34:44.848Z,10.90
2022-08-26T12:38:46.509Z,11.20
2022-08-26T12:42:47.992Z,12.00
2022-08-26T12:46:49.949Z,12.97
2022-08-26T12:50:54.598Z,12.33
2022-08-26T12:55:05.700Z,12.47
2022-08-26T12:59:12.313Z,12.47
2022-08-26T13:03:37.576Z,13.53
2022-08-26T13:07:40.170Z,13.60
2022-08-26T13:11:45.274Z,13.23
2022-08-26T13:15:46.527Z,21.53
2022-08-26T13:19:48.033Z,12.23
2022-08-26T13:23:50.745Z,12.20
2022-08-26T13:27:52.407Z,11.20
2022-08-26T13:31:54.271Z,12.23
2022-08-26T13:35:55.560Z,12.47
2022-08-26T13:39:57.594Z,11.27
2022-08-26T13:43:59.510Z,10.80
2022-08-26T13:48:01.103Z,12.10
2022-08-26T13:52:03.267Z,11.47
2022-08-26T13:56:06.956Z,10.13
2022-08-26T14:00:10.987Z,9.23
2022-08-26T14:04:12.496Z,7.70
2022-08-26T14:08:13.916Z,7.90
2022-08-26T14:12:15.872Z,8.87
2022-08-26T14:16:30.956Z,10.00
2022-08-26T14:20:33.522Z,8.50
2022-08-26T14:24:34.666Z,10.23
2022-08-26T14:28:37.179Z,8.63
2022-08-26T14:32:41.928Z,9.20
2022-08-26T14:36:43.146Z,11.20
2022-08-26T14:40:44.487Z,12.50
2022-08-26T14:44:48.976Z,16.00
2022-08-26T14:48:50.219Z,19.03
2022-08-26T14:53:10.658Z,20.17
2022-08-26T14:57:13.448Z,19.80
2022-08-26T15:01:15.411Z,39.50
2022-08-26T15:05:17.371Z,21.03
2022-08-26T15:09:18.942Z,22.43
2022-08-26T15:13:20.242Z,23.10
2022-08-26T15:17:21.744Z,22.00
2022-08-26T15:21:23.807Z,22.53
2022-08-26T15:25:25.058Z,21.47
2022-08-26T15:29:26.417Z,21.73
2022-08-26T15:33:27.997Z,20.40
2022-08-26T15:37:29.283Z,21.57
2022-08-26T15:41:30.620Z,19.90
2022-08-26T15:45:33.615Z,19.77
2022-08-26T15:49:34.924Z,19.53
2022-08-26T15:53:36.195Z,21.87
2022-08-26T15:57:37.489Z,20.23
2022-08-26T16:01:39.159Z,22.67
2022-08-26T16:05:42.961Z,22.33
2022-08-26T16:09:44.648Z,21.70
2022-08-26T16:13:47.748Z,22.00
2022-08-26T16:17:49.021Z,22.40
2022-08-26T16:21:50.831Z,23.20
2022-08-26T16:25:52.838Z,20.27
2022-08-26T16:29:54.464Z,22.90
2022-08-26T16:33:55.811Z,20.63
2022-08-26T16:37:57.179Z,19.67
2022-08-26T16:41:58.526Z,19.90
2022-08-26T16:46:00.228Z,19.57
2022-08-26T16:50:03.823Z,17.57
2022-08-26T16:54:07.270Z,18.43
2022-08-26T16:58:08.746Z,18.70
2022-08-26T17:02:11.248Z,20.30
2022-08-26T17:06:12.900Z,23.20
2022-08-26T17:10:14.843Z,23.23
2022-08-26T17:14:16.340Z,25.03
2022-08-26T17:18:24.636Z,26.73
2022-08-26T17:22:28.073Z,25.37
2022-08-26T17:26:30.240Z,30.40
2022-08-26T17:30:31.590Z,30.23
2022-08-26T17:34:33.376Z,30.60
2022-08-26T17:38:36.287Z,31.90
2022-08-26T17:42:38.802Z,32.87
2022-08-26T17:46:40.211Z,34.90
2022-08-26T17:50:42.545Z,35.50
2022-08-26T17:54:43.827Z,33.60
2022-08-26T17:58:48.153Z,36.67
2022-08-26T18:02:48.614Z,32.27
2022-08-26T18:06:50.096Z,34.10
2022-08-26T18:10:51.556Z,32.73
2022-08-26T18:14:52.802Z,35.20
2022-08-26T18:18:54.542Z,36.60
2022-08-26T18:22:55.808Z,36.00
2022-08-26T18:26:57.494Z,34.20
2022-08-26T18:30:58.909Z,34.20
2022-08-26T18:35:00.569Z,34.67
2022-08-26T18:39:04.454Z,33.53
2022-08-26T18:43:05.687Z,34.93
2022-08-26T18:47:06.921Z,29.90
2022-08-26T18:51:10.422Z,29.53
2022-08-26T18:55:13.523Z,30.10
2022-08-26T18:59:15.149Z,29.70
2022-08-26T19:03:18.620Z,28.50
2022-08-26T19:07:19.968Z,29.30
2022-08-26T19:11:32.442Z,28.10
2022-08-26T19:15:24.319Z,28.10
2022-08-26T19:19:25.679Z,27.30
2022-08-26T19:23:31.916Z,26.97
2022-08-26T19:27:30.627Z,25.73
2022-08-26T19:31:32.814Z,24.83
2022-08-26T19:35:35.184Z,27.77
2022-08-26T19:39:36.792Z,25.50
2022-08-26T19:43:38.058Z,26.00
2022-08-26T19:47:39.532Z,25.23
2022-08-26T19:51:41.034Z,24.50
2022-08-26T19:55:42.288Z,25.37
2022-08-26T19:59:43.873Z,25.40
2022-08-26T20:03:45.793Z,23.03
2022-08-26T20:07:48.218Z,23.07
2022-08-26T20:11:49.501Z,24.90
2022-08-26T20:15:50.971Z,23.57
2022-08-26T20:20:28.393Z,23.50
2022-08-26T20:24:17.345Z,23.23
2022-08-26T20:28:18.637Z,22.33
2022-08-26T20:32:20.617Z,23.67
2022-08-26T20:36:26.169Z,24.40
2022-08-26T20:40:28.423Z,23.60
2022-08-26T20:44:29.924Z,22.70
2022-08-26T20:48:31.152Z,23.50
2022-08-26T20:52:32.869Z,24.43
2022-08-26T20:56:35.365Z,24.00
2022-08-26T21:00:37.499Z,22.27
2022-08-26T21:04:39.750Z,21.80
2022-08-26T21:08:43.237Z,21.03
2022-08-26T21:12:44.233Z,21.63
2022-08-26T21:16:46.293Z,22.37
2022-08-26T21:20:47.614Z,23.87
2022-08-26T21:24:48.942Z,22.80
2022-08-26T21:28:50.588Z,22.27
2022-08-26T21:32:51.885Z,22.47
2022-08-26T21:36:53.864Z,21.87
2022-08-26T21:41:04.471Z,21.20
2022-08-26T21:45:07.169Z,20.80
2022-08-26T21:49:11.648Z,21.67
2022-08-26T21:53:14.829Z,20.87
2022-08-26T21:57:16.629Z,20.47
2022-08-26T22:01:21.049Z,21.77
2022-08-26T22:05:22.431Z,19.83
2022-08-26T22:09:26.540Z,19.57
2022-08-26T22:13:31.181Z,21.70
2022-08-26T22:17:32.442Z,22.03
2022-08-26T22:21:34.966Z,20.23
2022-08-26T22:25:36.448Z,21.40
2022-08-26T22:29:37.933Z,19.53
2022-08-26T22:33:41.705Z,19.53
2022-08-26T22:37:43.361Z,20.20
2022-08-26T22:41:47.692Z,18.50
2022-08-26T22:45:49.576Z,19.10
2022-08-26T22:49:50.798Z,19.60
2022-08-26T22:53:52.107Z,18.07
2022-08-26T22:57:53.403Z,18.40
2022-08-26T23:01:55.425Z,18.60
2022-08-26T23:05:56.957Z,19.30
2022-08-26T23:09:58.188Z,17.50
2022-08-26T23:14:01.289Z,17.00
2022-08-26T23:18:05.040Z,18.50
2022-08-26T23:22:06.447Z,18.70
2022-08-26T23:26:08.059Z,17.30
2022-08-26T23:30:13.358Z,18.27
2022-08-26T23:34:33.001Z,17.43
2022-08-26T23:38:34.271Z,17.43
2022-08-26T23:42:36.442Z,17.10
2022-08-26T23:46:37.926Z,17.30
2022-08-26T23:50:57.770Z,17.30
2022-08-26T23:54:59.242Z,18.00
2022-08-26T23:59:00.464Z,16.60
